Perryopolis, Pennsylvania
Current Conditions -  °F | °C
As of 8:53 PM on Wednesday 17 Dec 2014 (Local Time) from KAGC Reporting Station
Overcast Overcast  
Wind Chill: 21°   Ceiling: 2600
Heat Index: 31°   Visibility: 10mi
Dew Point: 19°   Wind: 14mph
Humidity: 61%   Direction: 270°W
Pressure: 30.09"   Gusts: 24mph
Location:  40.09°N, 79.75°W
Report Text: KAGC 180153Z 27012G21KT 10SM OVC026 M01/M07 A3009 RMK AO2 SLP205 T10061072
Loading
Personal Weather Stations






























Interactive Weather Map New forecast layout! Learn more

10-Day Weather Forecast

Advertisements
Track Severe Weather on mobile